Time;durP1;ratioP1;P1;durP2;ratioP2;P2;SDS_P1;SDS_P2;PMS_P1;PMS_P2;Temp;Humidity;BMP_temperature;BMP_pressure;BME280_temperature;BME280_humidity;BME280_pressure;Samples;Min_cycle;Max_cycle;Signal;HPM_P1;HPM_P2
2021/12/11 00:02:12;;;;;;;97.60;37.10;;;;;;;-2.01;71.62;99234.77;126923;1311;107682;-82
2021/12/11 00:05:18;;;;;;;80.20;35.80;;;;;;;-1.98;71.57;99237.56;126676;1314;108769;-80
2021/12/11 00:08:27;;;;;;;71.40;32.60;;;;;;;-2.00;71.71;99242.70;126765;1311;106760;-82
2021/12/11 00:11:36;;;;;;;75.40;32.40;;;;;;;-2.01;71.40;99256.93;127070;1310;107378;-82
2021/12/11 00:14:45;;;;;;;62.50;29.20;;;;;;;-2.02;71.43;99265.52;126938;1310;108573;-82
2021/12/11 00:17:56;;;;;;;60.90;28.40;;;;;;;-2.03;71.72;99260.89;126809;1314;108910;-81
2021/12/11 00:21:07;;;;;;;70.10;29.60;;;;;;;-2.02;71.44;99263.09;127083;1311;107821;-80
2021/12/11 00:24:18;;;;;;;65.00;30.00;;;;;;;-2.03;71.51;99262.97;127072;1311;108799;-83
2021/12/11 00:27:27;;;;;;;68.60;30.10;;;;;;;-2.04;71.28;99272.59;126712;1311;108738;-84
2021/12/11 00:30:36;;;;;;;65.30;29.70;;;;;;;-2.08;71.25;99271.48;126646;1311;107858;-84
2021/12/11 00:33:42;;;;;;;71.20;30.30;;;;;;;-2.12;71.40;99265.30;126694;1310;108748;-84
2021/12/11 00:36:53;;;;;;;73.70;32.50;;;;;;;-2.14;71.21;99271.67;126739;1311;107906;-83
2021/12/11 00:40:04;;;;;;;72.30;30.90;;;;;;;-2.16;71.28;99277.35;127076;1310;108760;-85
2021/12/11 00:43:16;;;;;;;70.90;30.20;;;;;;;-2.17;71.35;99283.91;127053;1311;108526;-82
2021/12/11 00:46:27;;;;;;;72.70;32.60;;;;;;;-2.25;71.25;99290.80;127124;1311;108840;-83
2021/12/11 00:49:33;;;;;;;69.90;31.50;;;;;;;-2.29;71.34;99290.91;127002;1310;107678;-82
2021/12/11 00:52:45;;;;;;;67.90;32.30;;;;;;;-2.29;71.16;99290.22;127049;1310;106813;-82
2021/12/11 00:55:54;;;;;;;71.90;32.00;;;;;;;-2.29;71.25;99293.02;127025;1314;108719;-83
2021/12/11 00:59:05;;;;;;;72.40;31.90;;;;;;;-2.32;71.14;99297.20;127018;1310;108742;-80
2021/12/11 01:02:11;;;;;;;67.50;29.80;;;;;;;-2.37;71.23;99296.63;126485;1310;108863;-82
2021/12/11 01:05:17;;;;;;;67.90;28.50;;;;;;;-2.38;71.27;99292.68;126973;1311;108885;-85
2021/12/11 01:08:28;;;;;;;69.10;28.20;;;;;;;-2.39;70.91;99295.02;126820;1311;108791;-85
2021/12/11 01:11:38;;;;;;;70.20;28.00;;;;;;;-2.38;71.11;99297.55;126972;1310;108861;-82
2021/12/11 01:14:52;;;;;;;71.40;28.90;;;;;;;-2.33;70.90;99294.80;127080;1310;108681;-82
2021/12/11 01:18:10;;;;;;;62.10;25.90;;;;;;;-2.27;70.75;99304.23;126962;1310;107931;-81
2021/12/11 01:21:33;;;;;;;70.80;29.10;;;;;;;-2.21;70.75;99313.60;127009;1310;108923;-82
2021/12/11 01:24:45;;;;;;;72.40;30.60;;;;;;;-2.13;70.74;99314.16;127019;1310;108701;-83
2021/12/11 01:27:54;;;;;;;77.20;32.10;;;;;;;-2.14;70.50;99314.70;126995;1311;108811;-79
2021/12/11 01:31:00;;;;;;;75.30;31.10;;;;;;;-2.17;70.54;99311.91;126945;1311;106909;-79
2021/12/11 01:34:07;;;;;;;75.70;30.90;;;;;;;-2.17;70.61;99313.00;126716;1311;108713;-83
2021/12/11 01:37:14;;;;;;;73.70;31.90;;;;;;;-2.17;70.64;99319.42;126740;1311;108929;-79
2021/12/11 01:40:22;;;;;;;78.90;31.20;;;;;;;-2.19;70.50;99327.20;126648;1311;108579;-79
2021/12/11 01:43:32;;;;;;;78.10;32.70;;;;;;;-2.22;70.64;99333.71;127012;1311;107849;-80
2021/12/11 01:46:39;;;;;;;73.90;31.40;;;;;;;-2.22;70.78;99343.25;126948;1310;108922;-79
2021/12/11 01:49:48;;;;;;;76.80;31.30;;;;;;;-2.22;70.60;99343.96;127008;1310;109070;-81
2021/12/11 01:52:57;;;;;;;76.10;31.40;;;;;;;-2.26;70.57;99350.84;126670;1311;109008;-82
2021/12/11 01:56:08;;;;;;;77.20;31.10;;;;;;;-2.28;70.39;99358.43;126775;1311;108863;-81
2021/12/11 01:59:20;;;;;;;84.10;33.70;;;;;;;-2.25;70.45;99360.00;126813;1311;107774;-85
2021/12/11 02:02:31;;;;;;;81.60;34.00;;;;;;;-2.25;70.67;99358.27;126774;1310;108853;-81
2021/12/11 02:05:40;;;;;;;78.60;33.70;;;;;;;-2.24;70.62;99359.23;126593;1311;108841;-81
2021/12/11 02:08:45;;;;;;;82.30;32.10;;;;;;;-2.23;70.80;99361.46;126822;1311;108783;-80
2021/12/11 02:12:07;;;;;;;79.50;32.80;;;;;;;-2.25;70.70;99365.38;127059;1310;108656;-80
2021/12/11 02:15:17;;;;;;;83.50;33.30;;;;;;;-2.27;70.66;99376.31;126936;1311;109750;-80
2021/12/11 02:18:33;;;;;;;83.10;34.60;;;;;;;-2.29;70.70;99379.59;126978;1313;108901;-81
2021/12/11 02:21:46;;;;;;;81.80;34.00;;;;;;;-2.34;70.79;99382.83;126821;1310;108780;-80
2021/12/11 02:24:54;;;;;;;80.90;32.80;;;;;;;-2.33;70.75;99383.63;126973;1310;108982;-79
2021/12/11 02:28:05;;;;;;;76.30;30.80;;;;;;;-2.31;70.91;99380.39;126932;1310;108713;-79
2021/12/11 02:31:16;;;;;;;83.30;33.00;;;;;;;-2.30;70.83;99380.36;126975;1310;108816;-82
2021/12/11 02:34:34;;;;;;;79.40;31.80;;;;;;;-2.26;70.82;99385.67;127027;1310;107491;-80
2021/12/11 02:37:44;;;;;;;78.70;30.50;;;;;;;-2.21;70.82;99384.30;126862;1310;108488;-80
2021/12/11 02:40:56;;;;;;;82.30;32.40;;;;;;;-2.14;70.88;99392.95;126798;1314;108763;-82
2021/12/11 02:44:02;;;;;;;;;;;;;;;-2.05;70.99;99404.75;126966;1310;108875;-79
2021/12/11 02:47:14;;;;;;;76.00;28.80;;;;;;;-1.93;70.95;99407.20;126747;1311;108226;-81
2021/12/11 02:50:26;;;;;;;78.50;31.70;;;;;;;-1.84;70.78;99412.02;126845;1314;108841;-80
2021/12/11 02:53:36;;;;;;;77.70;31.10;;;;;;;-1.78;70.63;99417.07;126782;1310;107524;-81
2021/12/11 02:56:47;;;;;;;73.40;33.60;;;;;;;-1.76;70.90;99415.02;126613;1310;108786;-80
2021/12/11 02:59:54;;;;;;;84.10;34.50;;;;;;;-1.79;70.87;99418.86;126999;1310;106768;-81
2021/12/11 03:03:04;;;;;;;77.40;33.90;;;;;;;-1.82;70.81;99425.52;126758;1310;108710;-81
2021/12/11 03:06:18;;;;;;;73.00;31.40;;;;;;;-1.82;70.47;99427.59;126982;1311;108870;-82
2021/12/11 03:09:27;;;;;;;82.10;34.00;;;;;;;-1.83;70.60;99428.18;127099;1310;107517;-82
2021/12/11 03:12:33;;;;;;;83.00;33.90;;;;;;;-1.86;70.94;99432.35;126932;1310;108510;-83
2021/12/11 03:15:39;;;;;;;76.60;33.50;;;;;;;-1.85;70.71;99432.31;126612;1310;108676;-80
2021/12/11 03:18:44;;;;;;;74.10;32.60;;;;;;;-1.85;70.73;99433.39;127005;1310;108826;-81
2021/12/11 03:21:51;;;;;;;73.40;32.20;;;;;;;-1.87;70.55;99432.77;126977;1310;109040;-81
2021/12/11 03:24:57;;;;;;;76.40;32.50;;;;;;;-1.88;70.61;99430.96;126725;1311;108956;-83
2021/12/11 03:28:04;;;;;;;75.20;32.80;;;;;;;-1.89;70.53;99431.04;126611;1310;108993;-86
2021/12/11 03:31:11;;;;;;;76.20;33.30;;;;;;;-1.90;70.77;99432.10;126752;1310;108736;-84
2021/12/11 03:34:24;;;;;;;74.50;32.70;;;;;;;-1.90;70.80;99438.36;126522;1310;107760;-76
2021/12/11 03:37:29;;;;;;;78.80;31.80;;;;;;;-1.90;70.80;99434.75;126556;1310;108863;-77
2021/12/11 03:40:36;;;;;;;74.20;32.30;;;;;;;-1.91;70.58;99439.34;126787;1310;108815;-77
2021/12/11 03:43:42;;;;;;;78.40;31.80;;;;;;;-1.93;70.50;99440.27;126503;1311;108763;-77
2021/12/11 03:46:51;;;;;;;82.20;33.50;;;;;;;-1.92;70.58;99447.89;126539;1310;108379;-78
2021/12/11 03:49:57;;;;;;;76.80;35.50;;;;;;;-1.92;70.69;99448.08;126591;1311;109954;-81
2021/12/11 03:53:04;;;;;;;80.90;32.20;;;;;;;-1.95;70.62;99450.36;126889;1310;108864;-81
2021/12/11 03:56:12;;;;;;;82.10;33.90;;;;;;;-1.93;70.87;99451.66;126909;1310;108869;-81
2021/12/11 03:59:18;;;;;;;71.10;29.90;;;;;;;-1.87;70.72;99463.83;127076;1311;108907;-81
2021/12/11 04:02:27;;;;;;;99.60;38.30;;;;;;;-1.78;70.97;99471.98;126964;1311;106810;-80
2021/12/11 04:05:36;;;;;;;73.80;32.40;;;;;;;-1.70;70.82;99473.75;126749;1311;109108;-81
2021/12/11 04:08:42;;;;;;;79.90;35.50;;;;;;;-1.63;70.54;99481.34;126793;1310;108860;-79
2021/12/11 04:11:51;;;;;;;79.90;33.80;;;;;;;-1.56;70.57;99480.39;126683;1311;108424;-80
2021/12/11 04:14:57;;;;;;;75.10;34.20;;;;;;;-1.52;70.58;99480.19;126958;1310;108138;-80
2021/12/11 04:18:04;;;;;;;77.40;34.40;;;;;;;-1.50;70.44;99476.53;126864;1311;108921;-80
2021/12/11 04:21:11;;;;;;;76.10;34.90;;;;;;;-1.50;70.50;99472.48;126966;1310;109471;-82
2021/12/11 04:24:21;;;;;;;82.10;37.00;;;;;;;-1.57;70.58;99467.70;126918;1310;108916;-81
2021/12/11 04:27:27;;;;;;;78.30;34.80;;;;;;;-1.62;70.64;99471.36;126730;1311;108937;-82
2021/12/11 04:30:33;;;;;;;74.00;32.40;;;;;;;-1.66;70.38;99481.52;126819;1311;108800;-81
2021/12/11 04:33:41;;;;;;;69.10;30.90;;;;;;;-1.72;70.67;99477.86;126762;1313;108893;-81
2021/12/11 04:36:49;;;;;;;74.20;32.10;;;;;;;-1.77;70.54;99473.46;126932;1311;108685;-81
2021/12/11 04:40:01;;;;;;;74.50;31.20;;;;;;;-1.84;70.63;99479.64;126771;1310;108802;-81
2021/12/11 04:43:13;;;;;;;77.80;32.20;;;;;;;-1.86;70.72;99479.77;126500;1311;109006;-79
2021/12/11 04:46:19;;;;;;;97.70;35.40;;;;;;;-1.89;70.32;99481.41;126810;1310;108714;-80
2021/12/11 04:49:32;;;;;;;113.60;41.00;;;;;;;-1.96;70.56;99477.39;126787;1311;108698;-80
2021/12/11 04:52:50;;;;;;;126.10;44.50;;;;;;;-2.01;70.56;99480.84;126601;1314;107725;-79
2021/12/11 04:56:16;;;;;;;86.20;33.80;;;;;;;-2.06;70.45;99491.06;126592;1309;108799;-78
2021/12/11 04:59:37;;;;;;;71.30;31.30;;;;;;;-2.11;70.52;99503.94;126652;1310;108827;-82
2021/12/11 05:03:07;;;;;;;75.50;30.40;;;;;;;-2.15;70.32;99506.47;127149;1311;109728;-80
2021/12/11 05:06:29;;;;;;;68.80;29.40;;;;;;;-2.15;70.46;99514.77;126860;1310;109018;-75
2021/12/11 05:09:52;;;;;;;65.90;29.60;;;;;;;-2.12;70.50;99526.30;126938;1311;108696;-81
2021/12/11 05:13:00;;;;;;;66.20;28.30;;;;;;;-2.12;70.60;99528.38;126983;1311;108405;-77
2021/12/11 05:16:09;;;;;;;72.00;28.60;;;;;;;-2.08;70.64;99528.00;126814;1311;108928;-77
2021/12/11 05:19:15;;;;;;;72.70;28.30;;;;;;;-2.06;70.61;99543.21;126774;1310;108656;-78
2021/12/11 05:22:21;;;;;;;79.50;31.20;;;;;;;-2.03;70.59;99555.89;126830;1310;108780;-76
2021/12/11 05:25:27;;;;;;;86.80;33.20;;;;;;;-1.95;70.73;99568.16;126930;1310;108905;-79
2021/12/11 05:28:33;;;;;;;83.80;33.40;;;;;;;-1.84;71.04;99558.77;126738;1314;108764;-80
2021/12/11 05:31:39;;;;;;;90.60;34.80;;;;;;;-1.75;70.79;99559.83;126927;1314;108748;-79
2021/12/11 05:34:45;;;;;;;83.10;33.60;;;;;;;-1.66;70.73;99561.05;126983;1311;108887;-78
2021/12/11 05:37:50;;;;;;;82.10;33.00;;;;;;;-1.59;70.65;99568.82;126699;1310;109007;-78
2021/12/11 05:41:00;;;;;;;159.50;76.10;;;;;;;-1.54;70.60;99571.15;126793;1310;108768;-81
2021/12/11 05:44:07;;;;;;;131.60;51.40;;;;;;;-1.53;70.63;99577.72;126741;1311;107866;-80
2021/12/11 05:47:14;;;;;;;90.70;39.30;;;;;;;-1.52;70.88;99581.12;126764;1310;108754;-82
2021/12/11 05:50:24;;;;;;;87.70;35.30;;;;;;;-1.50;70.73;99584.52;126872;1310;108892;-79
2021/12/11 05:53:32;;;;;;;83.60;36.50;;;;;;;-1.49;70.86;99589.33;126831;1311;108812;-79
2021/12/11 05:56:40;;;;;;;101.10;39.80;;;;;;;-1.50;70.81;99594.11;126879;1311;108916;-77
2021/12/11 05:59:48;;;;;;;94.20;39.50;;;;;;;-1.52;70.74;99601.36;126877;1309;108913;-78
2021/12/11 06:02:56;;;;;;;94.00;39.60;;;;;;;-1.53;71.06;99603.55;127027;1311;108843;-78
2021/12/11 06:06:02;;;;;;;97.30;40.70;;;;;;;-1.51;71.21;99602.70;126844;1311;108857;-79
2021/12/11 06:09:10;;;;;;;120.70;52.60;;;;;;;-1.50;70.86;99607.52;126896;1314;108660;-78
2021/12/11 06:12:19;;;;;;;115.30;48.30;;;;;;;-1.53;70.88;99612.79;126979;1314;108610;-77
2021/12/11 06:15:25;;;;;;;145.90;57.80;;;;;;;-1.55;71.06;99616.56;126992;1313;106611;-77
2021/12/11 06:18:31;;;;;;;111.10;43.20;;;;;;;-1.57;70.85;99616.65;126986;1311;108988;-75
2021/12/11 06:21:38;;;;;;;110.00;43.70;;;;;;;-1.65;71.01;99622.55;126998;1310;108732;-75
2021/12/11 06:24:43;;;;;;;107.90;41.90;;;;;;;-1.69;71.17;99625.91;126966;1313;108914;-80
2021/12/11 06:27:49;;;;;;;225.30;72.50;;;;;;;-1.63;71.54;99631.68;126946;1310;108621;-77
2021/12/11 06:30:57;;;;;;;625.60;197.30;;;;;;;-1.50;71.38;99633.31;127119;1311;108921;-77
2021/12/11 06:34:04;;;;;;;471.00;138.30;;;;;;;-1.36;71.28;99636.86;126724;1311;108846;-78
2021/12/11 06:37:14;;;;;;;158.30;58.80;;;;;;;-1.26;71.24;99636.10;126907;1310;108907;-79
2021/12/11 06:40:22;;;;;;;149.10;52.70;;;;;;;-1.20;71.36;99646.19;126919;1310;108723;-77
2021/12/11 06:43:28;;;;;;;123.60;46.90;;;;;;;-1.14;71.54;99647.77;127820;1310;108844;-78
2021/12/11 06:46:34;;;;;;;109.40;41.50;;;;;;;-1.08;71.40;99651.94;127219;1311;108750;-77
2021/12/11 06:49:41;;;;;;;92.30;39.10;;;;;;;-1.03;71.40;99649.52;126752;1313;108304;-77
2021/12/11 06:52:49;;;;;;;171.30;56.10;;;;;;;-1.00;71.48;99646.18;126962;1314;109701;-75
2021/12/11 06:55:55;;;;;;;155.00;59.10;;;;;;;-0.98;71.46;99645.54;127079;1311;107285;-76
2021/12/11 06:59:02;;;;;;;327.00;94.40;;;;;;;-0.94;71.34;99649.67;127122;1311;107941;-76
2021/12/11 07:02:08;;;;;;;284.80;82.60;;;;;;;-0.90;71.43;99652.22;126787;1311;108720;-75
2021/12/11 07:05:15;;;;;;;135.60;48.00;;;;;;;-0.91;71.72;99655.92;126786;1313;108847;-77
2021/12/11 07:08:22;;;;;;;103.10;42.30;;;;;;;-0.89;71.50;99658.77;126917;1314;108739;-76
2021/12/11 07:11:28;;;;;;;101.70;42.80;;;;;;;-0.86;71.75;99661.23;126942;1312;107799;-80
2021/12/11 07:14:34;;;;;;;95.60;42.60;;;;;;;-0.82;71.47;99668.30;126809;1314;108693;-79
2021/12/11 07:17:40;;;;;;;108.20;43.90;;;;;;;-0.80;71.71;99672.70;126861;1314;108827;-78
2021/12/11 07:20:46;;;;;;;101.00;42.60;;;;;;;-0.75;71.75;99678.89;126715;1308;108783;-76
2021/12/11 07:23:51;;;;;;;104.60;43.30;;;;;;;-0.67;71.77;99678.95;127049;1308;108911;-78
2021/12/11 07:26:57;;;;;;;143.00;53.80;;;;;;;-0.54;71.56;99680.52;126999;1308;108823;-79
2021/12/11 07:30:03;;;;;;;126.10;49.40;;;;;;;-0.43;71.74;99688.55;126811;1311;108730;-77
2021/12/11 07:33:10;;;;;;;105.20;44.40;;;;;;;-0.30;71.80;99690.35;127034;1314;108990;-79
2021/12/11 07:36:16;;;;;;;95.70;42.20;;;;;;;-0.19;71.68;99695.44;126935;1307;172637;-79
2021/12/11 07:39:22;;;;;;;94.10;43.20;;;;;;;-0.13;71.54;99702.92;126799;1316;108933;-77
2021/12/11 07:42:28;;;;;;;94.30;43.00;;;;;;;-0.07;71.54;99704.13;126718;1314;108796;-77
2021/12/11 07:45:35;;;;;;;89.80;42.20;;;;;;;-0.03;71.48;99701.95;126745;1310;108956;-77
2021/12/11 07:48:41;;;;;;;87.80;41.90;;;;;;;-0.02;71.69;99705.22;126612;1311;108386;-78
2021/12/11 07:51:48;;;;;;;99.60;43.80;;;;;;;0.01;71.58;99711.69;126701;1310;108784;-80
2021/12/11 07:54:53;;;;;;;94.20;43.30;;;;;;;0.01;71.63;99715.67;126880;1313;108686;-80
2021/12/11 07:57:59;;;;;;;94.70;42.60;;;;;;;0.04;71.68;99723.85;126696;1310;108481;-80
2021/12/11 08:01:08;;;;;;;97.40;43.20;;;;;;;0.05;71.66;99726.80;127161;1310;108983;-77
2021/12/11 08:04:15;;;;;;;97.40;44.50;;;;;;;0.07;71.84;99729.77;126664;1310;108727;-78
2021/12/11 08:07:20;;;;;;;93.30;44.30;;;;;;;0.11;71.80;99733.42;126818;1309;108930;-78
2021/12/11 08:10:27;;;;;;;120.40;58.40;;;;;;;0.15;71.76;99732.63;126814;1315;109705;-78
2021/12/11 08:13:34;;;;;;;111.90;52.20;;;;;;;0.19;71.71;99732.00;126628;1314;108918;-78
2021/12/11 08:16:47;;;;;;;106.30;47.80;;;;;;;0.23;71.62;99734.55;126679;1310;108612;-79
2021/12/11 08:19:53;;;;;;;212.80;95.30;;;;;;;0.25;71.82;99749.47;126740;1313;108697;-78
2021/12/11 08:22:59;;;;;;;124.00;53.40;;;;;;;0.28;71.74;99755.40;126865;1311;109304;-82
2021/12/11 08:26:05;;;;;;;120.40;54.60;;;;;;;0.30;71.87;99758.02;126595;1310;108131;-81
2021/12/11 08:29:14;;;;;;;117.10;55.60;;;;;;;0.38;72.00;99754.91;126871;1317;108676;-79
2021/12/11 08:32:22;;;;;;;117.10;53.10;;;;;;;0.53;71.79;99756.91;126917;1310;109236;-79
2021/12/11 08:35:28;;;;;;;116.80;52.30;;;;;;;0.60;71.68;99757.30;126689;1310;108652;-80
2021/12/11 08:38:33;;;;;;;115.80;53.20;;;;;;;0.67;71.82;99755.30;126776;1313;108739;-78
2021/12/11 08:41:40;;;;;;;116.00;52.20;;;;;;;0.75;71.71;99755.44;126955;1311;108019;-78
2021/12/11 08:44:52;;;;;;;105.50;49.40;;;;;;;0.82;71.65;99757.11;126977;1311;108956;-80
2021/12/11 08:47:59;;;;;;;111.90;51.40;;;;;;;0.82;71.58;99770.77;127055;1311;107536;-83
2021/12/11 08:51:10;;;;;;;109.40;49.70;;;;;;;0.84;71.66;99773.58;126906;1311;109047;-77
2021/12/11 08:54:17;;;;;;;112.80;51.40;;;;;;;0.86;71.66;99780.98;126948;1309;108798;-80
2021/12/11 08:57:31;;;;;;;184.50;84.10;;;;;;;0.88;71.78;99790.44;126740;1314;109061;-79
2021/12/11 09:00:43;;;;;;;163.90;75.80;;;;;;;0.89;71.96;99787.77;126827;1311;108207;-79
2021/12/11 09:03:52;;;;;;;126.20;58.50;;;;;;;0.89;71.99;99786.01;126758;1314;107157;-82
2021/12/11 09:07:02;;;;;;;110.60;52.20;;;;;;;0.90;71.82;99799.28;126854;1313;108922;-82
2021/12/11 09:10:14;;;;;;;113.80;52.00;;;;;;;0.88;71.93;99812.52;126871;1310;108779;-83
2021/12/11 09:13:23;;;;;;;120.50;54.90;;;;;;;0.82;71.94;99826.23;127347;1314;108896;-77
2021/12/11 09:16:35;;;;;;;113.80;50.80;;;;;;;0.84;71.97;99824.73;127433;1311;108748;-75
2021/12/11 09:19:47;;;;;;;122.60;53.00;;;;;;;0.89;72.15;99831.23;126930;1311;108540;-75
2021/12/11 09:22:59;;;;;;;98.50;42.60;;;;;;;1.00;72.20;99832.56;127012;1313;108557;-75
2021/12/11 09:26:09;;;;;;;103.40;45.70;;;;;;;1.11;72.16;99836.17;127003;1311;107106;-76
2021/12/11 09:29:23;;;;;;;104.00;45.40;;;;;;;1.26;72.21;99840.84;126945;1313;108910;-75
2021/12/11 09:32:34;;;;;;;98.70;44.80;;;;;;;1.40;72.14;99840.23;126521;1310;106637;-73
2021/12/11 09:35:43;;;;;;;96.30;44.30;;;;;;;1.51;72.10;99834.19;126592;1316;108828;-75
2021/12/11 09:38:53;;;;;;;98.60;44.30;;;;;;;1.64;72.11;99839.84;126606;1316;108984;-74
2021/12/11 09:41:56;;;;;;;554.80;163.10;;;;;;;1.74;71.99;99844.76;126759;1316;109004;-75
2021/12/11 09:45:01;;;;;;;;;;;;;;;1.86;72.11;99850.36;126940;1314;98815;-76
2021/12/11 09:48:11;;;;;;;199.60;65.00;;;;;;;1.95;72.19;99854.12;126609;1317;108709;-80
2021/12/11 09:51:20;;;;;;;151.80;56.80;;;;;;;2.03;72.08;99851.29;126657;1310;108407;-76
2021/12/11 09:54:26;;;;;;;107.60;49.10;;;;;;;2.11;72.32;99849.64;126652;1310;108920;-76
2021/12/11 09:57:39;;;;;;;100.90;48.00;;;;;;;2.21;72.28;99851.58;126757;1315;108793;-77
2021/12/11 10:00:49;;;;;;;99.90;52.10;;;;;;;2.27;72.26;99852.02;126666;1316;108829;-79
2021/12/11 10:04:00;;;;;;;90.60;47.20;;;;;;;2.36;72.26;99855.64;126615;1316;108547;-79
2021/12/11 10:07:27;;;;;;;96.60;48.00;;;;;;;2.39;72.29;99856.95;126622;1316;108886;-80
2021/12/11 10:10:33;;;;;;;96.40;48.10;;;;;;;2.46;72.24;99860.48;126805;1310;107344;-82
2021/12/11 10:13:43;;;;;;;97.60;45.90;;;;;;;2.48;72.44;99862.67;126910;1314;108944;-82
2021/12/11 10:16:53;;;;;;;82.90;39.00;;;;;;;2.58;72.51;99867.56;126617;1310;108666;-76
2021/12/11 10:20:02;;;;;;;99.60;46.80;;;;;;;2.75;72.38;99873.18;126878;1311;108822;-79
2021/12/11 10:23:12;;;;;;;94.70;49.00;;;;;;;2.90;72.18;99877.84;126779;1311;108774;-79
2021/12/11 10:26:22;;;;;;;101.40;52.20;;;;;;;3.08;72.24;99874.23;127000;1311;108944;-78
2021/12/11 10:29:27;;;;;;;116.80;55.90;;;;;;;3.25;72.29;99877.36;127037;1314;108802;-80
2021/12/11 10:32:35;;;;;;;106.90;52.10;;;;;;;3.43;71.90;99890.30;127020;1314;108832;-79
2021/12/11 10:35:46;;;;;;;99.70;51.30;;;;;;;3.56;72.12;99897.90;126948;1311;108653;-79
2021/12/11 10:38:52;;;;;;;332.10;133.30;;;;;;;3.71;72.09;99899.90;126855;1314;108745;-80
2021/12/11 10:41:59;;;;;;;136.30;61.10;;;;;;;3.76;71.97;99894.07;127050;1311;108747;-80
2021/12/11 10:45:07;;;;;;;102.20;50.50;;;;;;;3.71;71.87;99900.25;126999;1310;108933;-80
2021/12/11 10:48:17;;;;;;;267.60;114.90;;;;;;;3.58;71.76;99907.23;127022;1310;108834;-79
2021/12/11 10:51:28;;;;;;;202.20;88.60;;;;;;;3.44;71.94;99918.64;126613;1313;107493;-80
2021/12/11 10:54:34;;;;;;;123.60;62.00;;;;;;;3.28;71.93;99919.12;126842;1313;108609;-81
2021/12/11 10:57:40;;;;;;;103.60;54.20;;;;;;;3.17;72.13;99912.42;126744;1314;109016;-79
2021/12/11 11:00:50;;;;;;;113.30;58.00;;;;;;;3.06;71.98;99923.23;126481;1314;107764;-78
2021/12/11 11:03:59;;;;;;;121.80;59.10;;;;;;;2.98;72.23;99934.21;126751;1314;108706;-80
2021/12/11 11:07:06;;;;;;;100.70;49.90;;;;;;;2.97;72.38;99933.77;126869;1313;108858;-81
2021/12/11 11:10:16;;;;;;;115.60;54.70;;;;;;;2.98;72.30;99933.15;126957;1314;108763;-79
2021/12/11 11:13:24;;;;;;;120.20;54.10;;;;;;;2.97;72.32;99932.18;127175;1311;108783;-80
2021/12/11 11:16:30;;;;;;;94.70;47.00;;;;;;;2.97;72.11;99926.21;127083;1311;109003;-80
2021/12/11 11:19:40;;;;;;;98.80;48.70;;;;;;;2.96;72.24;99916.93;126810;1309;107887;-80
2021/12/11 11:22:46;;;;;;;100.90;49.40;;;;;;;2.89;72.15;99911.66;126899;1314;109698;-76
2021/12/11 11:25:55;;;;;;;97.40;49.20;;;;;;;2.80;72.05;99916.17;126745;1310;109470;-79
2021/12/11 11:29:03;;;;;;;139.50;63.20;;;;;;;2.73;72.17;99921.80;126868;1313;106625;-81
2021/12/11 11:32:13;;;;;;;259.30;95.70;;;;;;;2.68;72.24;99934.08;126512;1310;108793;-82
2021/12/11 11:35:22;;;;;;;186.00;75.80;;;;;;;2.63;72.36;99935.70;126934;1314;108641;-78
2021/12/11 11:38:30;;;;;;;107.70;52.10;;;;;;;2.55;72.42;99945.52;126851;1314;108560;-80
2021/12/11 11:41:41;;;;;;;100.30;49.80;;;;;;;2.50;72.52;99955.23;126926;1314;108589;-80
2021/12/11 11:44:49;;;;;;;106.00;52.60;;;;;;;2.46;72.52;99960.56;126781;1314;108596;-80
2021/12/11 11:47:55;;;;;;;114.20;52.90;;;;;;;2.44;72.65;99964.04;127018;1311;108830;-76
2021/12/11 11:51:04;;;;;;;166.10;62.10;;;;;;;2.40;72.64;99962.95;126731;1314;107482;-78
2021/12/11 11:54:12;;;;;;;102.80;46.90;;;;;;;2.39;72.67;99960.55;126847;1313;108748;-81
2021/12/11 11:57:21;;;;;;;158.40;63.50;;;;;;;2.39;72.60;99975.17;126785;1311;108938;-79
2021/12/11 12:00:32;;;;;;;132.50;64.10;;;;;;;2.42;72.71;99987.72;126776;1313;108888;-79
2021/12/11 12:03:38;;;;;;;111.00;56.00;;;;;;;2.46;72.68;99987.79;126500;1314;109426;-79
2021/12/11 12:06:48;;;;;;;109.20;57.40;;;;;;;2.47;72.64;99997.58;126673;1313;109161;-77
2021/12/11 12:09:55;;;;;;;157.60;67.40;;;;;;;2.44;72.76;100004.07;126593;1313;107625;-74
2021/12/11 12:13:06;;;;;;;160.80;69.60;;;;;;;2.44;72.76;100006.71;126527;1313;108855;-75
2021/12/11 12:16:15;;;;;;;121.20;59.40;;;;;;;2.42;72.62;100002.83;126908;1311;108805;-75
2021/12/11 12:19:22;;;;;;;122.50;59.50;;;;;;;2.38;72.54;100005.03;126606;1310;108719;-74
2021/12/11 12:22:29;;;;;;;110.40;56.60;;;;;;;2.31;72.60;100014.63;126840;1309;108152;-74
2021/12/11 12:25:35;;;;;;;107.80;54.30;;;;;;;2.26;72.55;100016.20;126943;1310;107396;-76
2021/12/11 12:28:41;;;;;;;107.20;55.30;;;;;;;2.19;72.57;100014.29;126819;1310;109067;-75
2021/12/11 12:31:51;;;;;;;131.00;62.20;;;;;;;2.11;72.55;100013.88;126922;1310;108597;-75
2021/12/11 12:34:59;;;;;;;119.50;57.50;;;;;;;2.05;72.56;100019.27;126733;1314;108794;-76
2021/12/11 12:38:08;;;;;;;96.10;46.60;;;;;;;2.00;72.54;100021.86;126614;1311;108613;-75
2021/12/11 12:41:21;;;;;;;113.30;56.80;;;;;;;1.98;72.55;100025.01;126668;1314;108266;-76
2021/12/11 12:44:26;;;;;;;;;;;;;;;1.98;72.56;100028.33;126950;1314;108088;-76
2021/12/11 12:47:35;;;;;;;109.60;55.00;;;;;;;1.98;72.44;100031.82;127031;1314;108564;-76
2021/12/11 12:50:45;;;;;;;117.60;57.70;;;;;;;1.96;72.52;100030.17;126983;1310;108524;-79
2021/12/11 12:53:51;;;;;;;118.50;58.50;;;;;;;1.93;72.47;100034.05;126973;1310;108759;-78
2021/12/11 12:57:07;;;;;;;113.20;56.10;;;;;;;1.87;72.48;100042.04;127021;1311;108466;-80
2021/12/11 13:00:20;;;;;;;124.60;63.00;;;;;;;1.82;72.48;100041.45;127474;1310;108748;-79
2021/12/11 13:03:30;;;;;;;125.70;61.80;;;;;;;1.73;72.32;100045.94;126948;1311;108923;-77
2021/12/11 13:06:41;;;;;;;123.20;61.60;;;;;;;1.67;72.49;100043.36;126527;1311;109904;-82
2021/12/11 13:09:50;;;;;;;127.60;59.60;;;;;;;1.66;72.71;100041.85;126335;1314;108818;-76
2021/12/11 13:12:57;;;;;;;139.50;61.60;;;;;;;1.56;72.14;100045.42;126460;1312;108054;-78
2021/12/11 13:16:06;;;;;;;123.90;58.10;;;;;;;1.38;72.48;100049.94;126613;1313;108838;-79
2021/12/11 13:19:19;;;;;;;130.60;61.00;;;;;;;1.36;72.71;100063.95;126763;1313;106909;-80
2021/12/11 13:22:29;;;;;;;119.10;58.20;;;;;;;1.31;72.71;100060.05;126461;1311;108897;-79
2021/12/11 13:25:41;;;;;;;120.00;51.80;;;;;;;1.29;72.91;100064.23;126493;1310;108742;-80
2021/12/11 13:28:53;;;;;;;123.40;57.00;;;;;;;1.30;72.84;100064.14;126505;1314;108714;-81
2021/12/11 13:32:00;;;;;;;;;;;;;;;1.31;72.68;100065.67;126471;1314;109134;-80
2021/12/11 13:35:11;;;;;;;111.70;52.90;;;;;;;1.30;72.67;100067.81;126594;1310;108738;-80
2021/12/11 13:38:20;;;;;;;118.30;56.40;;;;;;;1.26;72.63;100077.89;126505;1311;108910;-80
2021/12/11 13:41:29;;;;;;;116.10;55.40;;;;;;;1.20;72.73;100078.61;126741;1311;108947;-81
2021/12/11 13:44:39;;;;;;;166.80;70.90;;;;;;;1.12;72.59;100079.27;127055;1316;108981;-77
2021/12/11 13:47:44;;;;;;;136.40;60.30;;;;;;;1.04;72.62;100081.17;126805;1310;109024;-79
2021/12/11 13:50:53;;;;;;;145.80;66.50;;;;;;;0.90;72.61;100078.60;126510;1314;107044;-76
2021/12/11 13:53:59;;;;;;;123.20;55.00;;;;;;;0.81;72.61;100070.91;126502;1310;108870;-74
2021/12/11 13:57:13;;;;;;;153.90;67.70;;;;;;;0.68;72.75;100073.60;126618;1311;107532;-74
2021/12/11 14:00:23;;;;;;;143.20;64.50;;;;;;;0.60;72.66;100082.67;126694;1311;108888;-78
2021/12/11 14:03:31;;;;;;;120.70;56.40;;;;;;;0.52;72.82;100081.63;126504;1309;108861;-78
2021/12/11 14:06:37;;;;;;;119.90;51.70;;;;;;;0.40;72.85;100079.38;126506;1310;108551;-76
2021/12/11 14:09:48;;;;;;;110.40;50.30;;;;;;;0.36;72.67;100080.78;126570;1311;108794;-79